Huntington, WV

10:06 PM EST on January 27, 2015 (GMT -0500)
Cabell County EMS HQ | Change Station
CLOSE
Current Station
Personal Weather Station
Location: Huntington, WV
Elevation: 573 ft
Nearby Weather Stations

Elev 573 ft 38.42 °N, 82.44 °W | Updated 5 seconds ago

Overcast
Overcast
24.3 °F
Feels Like 19 °F
N
4.0
Wind Variable Wind from WNW
Gusts 8.0 mph

Today
High -- | Low -- °F
--% Chance of Precip.
Yesterday
High -- | Low -- °F
Precip. -- in
7:39 AM 5:46 PM
First Quarter, 60% visible
Pressure 30.23 in
Visibility 10.0 miles
Clouds Overcast 2400 ft
Windchill 19 °F
Dew Point 17 °F
Humidity 73%
Rainfall 0.02 in
Snow Depth Not available.
UV 0.0 out of 12
Pollen .10 out of 12
Air Quality Not available.
Flu Activity Not available.
METAR KHTS 280251Z VRB06KT 10SM OVC024 M06/M10 A3020 RMK AO2 SLP237 T10561100 51020 $

More Conditions Fewer Conditions

Pressure 30.23 in
Visibility 10.0 miles
Clouds Overcast 2400 ft
Windchill 19 °F
Dew Point 17 °F
Humidity 73%
Rainfall 0.02 in
Snow Depth Not available.
UV 0.0 out of 12
Pollen .10 out of 12
Air Quality Not available.
Flu Activity Not available.
METAR KHTS 280251Z VRB06KT 10SM OVC024 M06/M10 A3020 RMK AO2 SLP237 T10561100 51020 $

More Conditions Fewer Conditions

10-Day Weather Forecast

Almanac

Astronomy

Jan. 27, 2015 Rise Set
Actual Time
Civil Twilight
Nautical Twilight
Astronomical Twilight
Moon
Length of Visible Light
Length of Day
Tomorrow will be .
, % of the Moon is Illuminated

Today's Extremes

State Highs State Lows

Community

WunderPhotos

Upload Photos

1,791,064 photos uploaded!

WunderBlogs® & News

Nearby

Air Quality

  Air Quality AQ Index Pollutant
Not available.

Snow Depth

Station Depth Elevation

Earthquake Activity

City Distance Mag. Time & Date
Minimum magnitude displayed is 2.5.

Coastal Water Temperatures

Place Temperature

Nearby Weather Stations